createdAt,value
2022-08-25T00:01:55.843Z,98497.34
2022-08-25T00:04:24.230Z,98507.47
2022-08-25T00:06:53.141Z,98503.06
2022-08-25T00:09:26.093Z,98490.00
2022-08-25T00:11:54.478Z,98491.06
2022-08-25T00:14:24.825Z,98491.53
2022-08-25T00:16:53.495Z,98492.41
2022-08-25T00:19:26.814Z,98490.00
2022-08-25T00:21:56.507Z,98492.91
2022-08-25T00:24:26.126Z,98487.28
2022-08-25T00:26:56.526Z,98490.13
2022-08-25T00:29:25.965Z,98490.03
2022-08-25T00:31:54.998Z,98484.25
2022-08-25T00:34:26.085Z,98487.06
2022-08-25T00:36:54.619Z,98481.59
2022-08-25T00:39:25.419Z,98482.66
2022-08-25T00:41:56.979Z,98479.47
2022-08-25T00:44:26.488Z,98474.88
2022-08-25T00:46:56.387Z,98472.16
2022-08-25T00:49:27.824Z,98479.50
2022-08-25T00:52:00.904Z,98481.59
2022-08-25T00:54:32.766Z,98481.31
2022-08-25T00:57:01.723Z,98479.50
2022-08-25T00:59:30.127Z,98474.19
2022-08-25T01:01:59.101Z,98478.16
2022-08-25T01:04:27.586Z,98479.41
2022-08-25T01:06:56.654Z,98483.09
2022-08-25T01:09:25.094Z,98485.00
2022-08-25T01:11:55.541Z,98485.34
2022-08-25T01:14:24.812Z,98479.31
2022-08-25T01:16:54.973Z,98479.41
2022-08-25T01:19:23.258Z,98477.34
2022-08-25T01:21:53.964Z,98475.34
2022-08-25T01:24:26.335Z,98479.38
2022-08-25T01:26:54.706Z,98475.75
2022-08-25T01:29:25.465Z,98470.91
2022-08-25T01:31:58.018Z,98468.50
2022-08-25T01:34:27.408Z,98467.88
2022-08-25T01:36:57.957Z,98466.31
2022-08-25T01:39:28.128Z,98465.06
2022-08-25T01:42:10.719Z,98464.09
2022-08-25T01:44:40.818Z,98469.03
2022-08-25T01:47:10.150Z,98459.69
2022-08-25T01:49:38.610Z,98453.56
2022-08-25T01:52:13.590Z,98449.91
2022-08-25T01:54:41.911Z,98446.94
2022-08-25T01:57:10.326Z,98448.63
2022-08-25T01:59:38.674Z,98446.47
2022-08-25T02:02:07.418Z,98449.78
2022-08-25T02:04:36.407Z,98453.13
2022-08-25T02:07:08.998Z,98451.00
2022-08-25T02:09:38.605Z,98448.38
2022-08-25T02:12:07.227Z,98447.06
2022-08-25T02:14:36.674Z,98445.38
2022-08-25T02:17:06.482Z,98448.41
2022-08-25T02:19:34.889Z,98443.34
2022-08-25T02:22:03.267Z,98446.16
2022-08-25T02:24:33.279Z,98454.03
2022-08-25T02:27:01.556Z,98448.91
2022-08-25T02:29:29.782Z,98448.09
2022-08-25T02:31:58.965Z,98440.91
2022-08-25T02:34:27.639Z,98438.44
2022-08-25T02:36:55.734Z,98434.84
2022-08-25T02:39:24.215Z,98440.84
2022-08-25T02:41:53.861Z,98441.91
2022-08-25T02:44:22.029Z,98440.81
2022-08-25T02:46:50.467Z,98443.53
2022-08-25T02:49:18.809Z,98444.78
2022-08-25T02:51:47.923Z,98439.22
2022-08-25T02:54:16.443Z,98434.84
2022-08-25T02:56:44.836Z,98434.06
2022-08-25T02:59:14.363Z,98442.03
2022-08-25T03:01:42.749Z,98430.38
2022-08-25T03:04:11.073Z,98428.78
2022-08-25T03:06:39.918Z,98434.84
2022-08-25T03:09:08.911Z,98431.63
2022-08-25T03:11:38.553Z,98428.88
2022-08-25T03:14:07.229Z,98428.84
2022-08-25T03:16:37.413Z,98421.53
2022-08-25T03:19:06.009Z,98424.00
2022-08-25T03:21:34.087Z,98418.78
2022-08-25T03:24:02.573Z,98417.50
2022-08-25T03:26:48.271Z,98423.25
2022-08-25T03:29:17.780Z,98417.47
2022-08-25T03:31:47.566Z,98422.66
2022-08-25T03:34:17.918Z,98418.50
2022-08-25T03:36:47.478Z,98418.41
2022-08-25T03:39:15.945Z,98413.88
2022-08-25T03:41:44.251Z,98423.91
2022-08-25T03:44:13.105Z,98426.66
2022-08-25T03:46:43.331Z,98426.59
2022-08-25T03:49:17.450Z,98412.72
2022-08-25T03:51:48.147Z,98429.78
2022-08-25T03:54:17.227Z,98420.38
2022-08-25T03:56:45.577Z,98427.81
2022-08-25T03:59:13.981Z,98419.81
2022-08-25T04:01:44.190Z,98422.22
2022-08-25T04:04:15.616Z,98422.69
2022-08-25T04:06:45.467Z,98428.72
2022-08-25T04:09:13.711Z,98426.28
2022-08-25T04:11:42.816Z,98428.91
2022-08-25T04:14:12.973Z,98422.28
2022-08-25T04:16:45.395Z,98427.31
2022-08-25T04:19:15.102Z,98425.13
2022-08-25T04:21:43.893Z,98424.94
2022-08-25T04:24:13.193Z,98420.00
2022-08-25T04:26:44.772Z,98426.63
2022-08-25T04:29:13.449Z,98415.88
2022-08-25T04:31:43.858Z,98424.00
2022-08-25T04:34:14.779Z,98424.38
2022-08-25T04:37:00.770Z,98424.59
2022-08-25T04:39:29.478Z,98425.72
2022-08-25T04:41:57.794Z,98427.03
2022-08-25T04:44:26.242Z,98429.94
2022-08-25T04:46:54.660Z,98426.50
2022-08-25T04:49:23.389Z,98415.66
2022-08-25T04:51:51.785Z,98425.34
2022-08-25T04:54:22.315Z,98423.66
2022-08-25T04:56:54.212Z,98426.47
2022-08-25T04:59:30.092Z,98425.28
2022-08-25T05:02:02.680Z,98416.38
2022-08-25T05:04:32.653Z,98421.16
2022-08-25T05:07:01.535Z,98421.59
2022-08-25T05:09:32.535Z,98425.84
2022-08-25T05:12:02.865Z,98428.91
2022-08-25T05:14:32.449Z,98426.13
2022-08-25T05:17:00.745Z,98427.75
2022-08-25T05:19:30.036Z,98430.69
2022-08-25T05:21:58.405Z,98421.47
2022-08-25T05:24:26.888Z,98434.31
2022-08-25T05:26:57.004Z,98421.09
2022-08-25T05:29:25.371Z,98417.34
2022-08-25T05:31:54.141Z,98416.31
2022-08-25T05:34:22.822Z,98416.31
2022-08-25T05:36:51.604Z,98416.22
2022-08-25T05:39:19.925Z,98412.25
2022-08-25T05:41:48.359Z,98415.34
2022-08-25T05:44:21.100Z,98415.56
2022-08-25T05:46:51.400Z,98412.75
2022-08-25T05:49:20.054Z,98412.16
2022-08-25T05:51:48.498Z,98411.28
2022-08-25T05:54:17.035Z,98409.97
2022-08-25T05:56:46.364Z,98413.69
2022-08-25T05:59:14.769Z,98413.19
2022-08-25T06:02:01.866Z,98416.19
2022-08-25T06:04:30.248Z,98419.44
2022-08-25T06:06:58.834Z,98427.41
2022-08-25T06:09:27.590Z,98419.97
2022-08-25T06:11:56.424Z,98421.19
2022-08-25T06:14:25.381Z,98426.28
2022-08-25T06:16:55.095Z,98417.59
2022-08-25T06:19:24.251Z,98409.06
2022-08-25T06:21:55.188Z,98408.97
2022-08-25T06:24:23.314Z,98406.91
2022-08-25T06:26:51.535Z,98414.22
2022-08-25T06:29:21.058Z,98409.41
2022-08-25T06:31:50.164Z,98415.88
2022-08-25T06:34:23.783Z,98415.13
2022-08-25T06:36:53.105Z,98422.66
2022-08-25T06:39:21.547Z,98415.28
2022-08-25T06:41:52.948Z,98412.06
2022-08-25T06:44:21.478Z,98405.22
2022-08-25T06:46:49.757Z,98413.94
2022-08-25T06:49:19.620Z,98406.44
2022-08-25T06:51:48.154Z,98406.19
2022-08-25T06:54:16.618Z,98405.56
2022-08-25T06:56:44.927Z,98406.25
2022-08-25T06:59:13.461Z,98402.53
2022-08-25T07:01:42.231Z,98403.50
2022-08-25T07:04:13.212Z,98401.75
2022-08-25T07:06:43.652Z,98405.09
2022-08-25T07:09:12.024Z,98402.91
2022-08-25T07:11:40.718Z,98401.31
2022-08-25T07:14:11.184Z,98401.66
2022-08-25T07:16:40.126Z,98402.16
2022-08-25T07:19:10.223Z,98403.13
2022-08-25T07:21:45.958Z,98400.19
2022-08-25T07:24:16.643Z,98394.19
2022-08-25T07:26:46.789Z,98391.59
2022-08-25T07:29:18.114Z,98397.94
2022-08-25T07:31:46.830Z,98398.78
2022-08-25T07:34:33.197Z,98396.31
2022-08-25T07:37:05.408Z,98396.94
2022-08-25T07:39:35.869Z,98403.06
2022-08-25T07:42:04.987Z,98395.66
2022-08-25T07:44:40.302Z,98399.69
2022-08-25T07:47:11.940Z,98400.91
2022-08-25T07:49:40.368Z,98394.28
2022-08-25T07:52:09.915Z,98388.59
2022-08-25T07:54:38.810Z,98394.88
2022-08-25T07:57:08.930Z,98392.81
2022-08-25T07:59:41.131Z,98392.44
2022-08-25T08:02:18.315Z,98389.53
2022-08-25T08:04:49.881Z,98389.94
2022-08-25T08:07:21.307Z,98392.25
2022-08-25T08:10:05.291Z,98389.84
2022-08-25T08:12:40.283Z,98381.50
2022-08-25T08:15:10.924Z,98386.41
2022-08-25T08:17:39.679Z,98386.63
2022-08-25T08:20:10.191Z,98379.31
2022-08-25T08:22:42.994Z,98378.66
2022-08-25T08:25:18.688Z,98386.47
2022-08-25T08:27:54.894Z,98382.88
2022-08-25T08:30:26.265Z,98387.00
2022-08-25T08:33:11.870Z,98386.09
2022-08-25T08:35:41.050Z,98384.94
2022-08-25T08:38:17.386Z,98386.31
2022-08-25T08:41:14.892Z,98380.44
2022-08-25T08:43:43.845Z,98389.03
2022-08-25T08:46:12.626Z,98375.59
2022-08-25T08:48:57.361Z,98384.28
2022-08-25T08:51:32.787Z,98385.81
2022-08-25T08:54:15.177Z,98374.28
2022-08-25T08:56:48.179Z,98380.34
2022-08-25T08:59:20.038Z,98382.91
2022-08-25T09:01:54.126Z,98385.03
2022-08-25T09:04:31.551Z,98383.03
2022-08-25T09:07:04.562Z,98370.28
2022-08-25T09:09:36.229Z,98369.72
2022-08-25T09:12:11.375Z,98376.53
2022-08-25T09:14:47.619Z,98379.63
2022-08-25T09:17:44.462Z,98368.16
2022-08-25T09:20:35.037Z,98376.38
2022-08-25T09:23:13.007Z,98360.69
2022-08-25T09:25:52.332Z,98362.41
2022-08-25T09:28:24.791Z,98357.63
2022-08-25T09:30:56.692Z,98368.25
2022-08-25T09:33:26.925Z,98358.31
2022-08-25T09:35:57.512Z,98367.75
2022-08-25T09:38:27.440Z,98343.97
2022-08-25T09:40:58.974Z,98337.50
2022-08-25T09:43:34.974Z,98343.84
2022-08-25T09:46:05.055Z,98346.75
2022-08-25T09:48:40.838Z,98355.16
2022-08-25T09:51:19.584Z,98356.31
2022-08-25T09:53:53.068Z,98345.66
2022-08-25T09:56:24.326Z,98351.19
2022-08-25T09:58:58.202Z,98347.22
2022-08-25T10:01:34.739Z,98347.63
2022-08-25T10:04:06.001Z,98336.66
2022-08-25T10:06:38.831Z,98326.34
2022-08-25T10:09:08.852Z,98321.97
2022-08-25T10:11:43.811Z,98327.47
2022-08-25T10:14:28.816Z,98330.41
2022-08-25T10:17:17.068Z,98327.53
2022-08-25T10:19:45.528Z,98324.50
2022-08-25T10:22:24.425Z,98308.84
2022-08-25T10:24:52.797Z,98299.66
2022-08-25T10:27:29.220Z,98284.66
2022-08-25T10:30:17.172Z,98277.59
2022-08-25T10:33:11.464Z,98278.16
2022-08-25T10:35:50.120Z,98278.38
2022-08-25T10:38:37.203Z,98284.81
2022-08-25T10:41:16.769Z,98286.56
2022-08-25T10:43:51.154Z,98300.28
2022-08-25T10:46:31.679Z,98283.09
2022-08-25T10:49:05.002Z,98276.94
2022-08-25T10:51:51.969Z,98266.66
2022-08-25T10:54:42.459Z,98272.03
2022-08-25T10:57:18.179Z,98268.53
2022-08-25T11:00:09.160Z,98254.41
2022-08-25T11:03:12.656Z,98254.53
2022-08-25T11:05:42.681Z,98249.06
2022-08-25T11:08:15.844Z,98247.38
2022-08-25T11:10:48.544Z,98244.78
2022-08-25T11:13:26.153Z,98242.63
2022-08-25T11:16:16.408Z,98248.19
2022-08-25T11:18:52.142Z,98237.72
2022-08-25T11:21:25.042Z,98242.44
2022-08-25T11:23:58.374Z,98233.66
2022-08-25T11:26:36.681Z,98234.28
2022-08-25T11:29:12.132Z,98218.03
2022-08-25T11:31:52.158Z,98231.41
2022-08-25T11:34:22.860Z,98221.78
2022-08-25T11:36:54.364Z,98210.69
2022-08-25T11:39:33.993Z,98212.13
2022-08-25T11:42:12.630Z,98200.50
2022-08-25T11:44:53.258Z,98216.84
2022-08-25T11:47:40.293Z,98205.84
2022-08-25T11:50:10.682Z,98204.53
2022-08-25T11:52:49.322Z,98205.81
2022-08-25T11:55:23.406Z,98196.78
2022-08-25T11:57:53.951Z,98195.59
2022-08-25T12:00:39.758Z,98201.28
2022-08-25T12:03:49.001Z,98195.69
2022-08-25T12:06:29.711Z,98211.88
2022-08-25T12:09:20.674Z,98197.25
2022-08-25T12:11:59.397Z,98190.00
2022-08-25T12:14:43.361Z,98197.03
2022-08-25T12:17:21.421Z,98198.78
2022-08-25T12:20:00.480Z,98198.78
2022-08-25T12:23:01.441Z,98194.13
2022-08-25T12:25:43.441Z,98194.97
2022-08-25T12:28:28.614Z,98187.19
2022-08-25T12:31:09.685Z,98185.13
2022-08-25T12:33:47.501Z,98193.22
2022-08-25T12:36:29.377Z,98191.94
2022-08-25T12:39:17.824Z,98188.09
2022-08-25T12:41:55.624Z,98185.59
2022-08-25T12:44:38.401Z,98194.78
2022-08-25T12:47:31.942Z,98194.81
2022-08-25T12:50:29.609Z,98186.88
2022-08-25T12:53:08.892Z,98192.91
2022-08-25T12:55:39.707Z,98190.63
2022-08-25T12:58:08.567Z,98184.97
2022-08-25T13:00:47.003Z,98181.59
2022-08-25T13:03:56.956Z,98183.00
2022-08-25T13:06:57.040Z,98186.31
2022-08-25T13:10:04.144Z,98183.44
2022-08-25T13:12:39.035Z,98180.78
2022-08-25T13:15:07.783Z,98182.22
2022-08-25T13:17:37.296Z,98186.53
2022-08-25T13:20:20.871Z,98188.34
2022-08-25T13:22:55.370Z,98194.25
2022-08-25T13:25:32.180Z,98178.06
2022-08-25T13:28:06.650Z,98174.28
2022-08-25T13:30:40.034Z,98178.38
2022-08-25T13:33:20.440Z,98162.69
2022-08-25T13:35:52.190Z,98173.69
2022-08-25T13:38:20.317Z,98174.38
2022-08-25T13:40:49.122Z,98177.50
2022-08-25T13:43:22.479Z,98173.94
2022-08-25T13:45:56.878Z,98172.25
2022-08-25T13:48:35.241Z,98177.03
2022-08-25T13:51:10.930Z,98181.09
2022-08-25T13:53:40.090Z,98177.59
2022-08-25T13:56:08.915Z,98175.22
2022-08-25T13:58:46.450Z,98172.44
2022-08-25T14:01:23.262Z,98173.72
2022-08-25T14:04:25.797Z,98172.53
2022-08-25T14:07:19.282Z,98168.44
2022-08-25T14:09:52.147Z,98162.25
2022-08-25T14:12:34.039Z,98153.66
2022-08-25T14:15:07.249Z,98152.34
2022-08-25T14:17:40.332Z,98156.94
2022-08-25T14:20:19.349Z,98152.06
2022-08-25T14:22:47.829Z,98149.19
2022-08-25T14:25:16.250Z,98156.16
2022-08-25T14:28:06.957Z,98157.78
2022-08-25T14:30:37.751Z,98147.16
2022-08-25T14:33:06.967Z,98148.22
2022-08-25T14:35:35.892Z,98142.78
2022-08-25T14:38:09.292Z,98147.50
2022-08-25T14:40:39.887Z,98140.88
2022-08-25T14:43:09.883Z,98136.25
2022-08-25T14:45:43.557Z,98132.91
2022-08-25T14:48:15.953Z,98133.69
2022-08-25T14:50:45.217Z,98134.59
2022-08-25T14:53:13.527Z,98134.25
2022-08-25T14:55:41.766Z,98131.44
2022-08-25T14:58:10.375Z,98136.22
2022-08-25T15:00:44.628Z,98133.97
2022-08-25T15:03:14.327Z,98131.16
2022-08-25T15:05:42.905Z,98133.03
2022-08-25T15:08:33.050Z,98131.97
2022-08-25T15:11:02.091Z,98125.50
2022-08-25T15:13:37.269Z,98126.66
2022-08-25T15:16:07.957Z,98131.78
2022-08-25T15:18:38.287Z,98131.81
2022-08-25T15:21:06.921Z,98142.00
2022-08-25T15:23:35.462Z,98131.38
2022-08-25T15:26:05.410Z,98136.81
2022-08-25T15:28:33.737Z,98134.47
2022-08-25T15:31:01.913Z,98132.41
2022-08-25T15:33:32.853Z,98131.84
2022-08-25T15:36:01.495Z,98133.47
2022-08-25T15:38:30.862Z,98134.56
2022-08-25T15:41:00.037Z,98129.31
2022-08-25T15:43:28.445Z,98127.22
2022-08-25T15:45:56.589Z,98129.06
2022-08-25T15:48:25.551Z,98128.50
2022-08-25T15:50:58.439Z,98120.59
2022-08-25T15:53:27.113Z,98130.91
2022-08-25T15:55:58.176Z,98121.84
2022-08-25T15:58:33.139Z,98114.88
2022-08-25T16:01:01.946Z,98122.38
2022-08-25T16:03:31.670Z,98108.69
2022-08-25T16:06:04.359Z,98119.66
2022-08-25T16:08:33.737Z,98118.44
2022-08-25T16:11:04.562Z,98110.63
2022-08-25T16:13:33.078Z,98123.44
2022-08-25T16:16:01.568Z,98130.50
2022-08-25T16:18:30.000Z,98129.63
2022-08-25T16:20:58.197Z,98126.94
2022-08-25T16:23:27.960Z,98128.84
2022-08-25T16:25:56.128Z,98126.28
2022-08-25T16:28:24.925Z,98127.03
2022-08-25T16:30:53.451Z,98127.56
2022-08-25T16:33:22.332Z,98120.13
2022-08-25T16:35:50.537Z,98129.59
2022-08-25T16:38:19.019Z,98136.00
2022-08-25T16:40:48.713Z,98133.91
2022-08-25T16:43:17.787Z,98128.19
2022-08-25T16:45:46.383Z,98131.19
2022-08-25T16:48:14.579Z,98128.34
2022-08-25T16:50:43.315Z,98132.28
2022-08-25T16:53:31.625Z,98132.25
2022-08-25T16:56:06.643Z,98126.84
2022-08-25T16:58:37.033Z,98119.53
2022-08-25T17:01:07.375Z,98122.47
2022-08-25T17:03:38.811Z,98127.03
2022-08-25T17:06:14.289Z,98125.56
2022-08-25T17:08:43.831Z,98131.19
2022-08-25T17:11:17.347Z,98131.88
2022-08-25T17:13:49.760Z,98137.31
2022-08-25T17:16:19.616Z,98131.63
2022-08-25T17:18:48.737Z,98134.31
2022-08-25T17:21:23.834Z,98135.00
2022-08-25T17:23:53.356Z,98135.97
2022-08-25T17:26:27.709Z,98129.66
2022-08-25T17:28:57.634Z,98126.25
2022-08-25T17:31:28.786Z,98119.13
2022-08-25T17:33:59.646Z,98131.09
2022-08-25T17:36:27.946Z,98130.66
2022-08-25T17:38:56.988Z,98126.84
2022-08-25T17:41:27.050Z,98137.09
2022-08-25T17:43:55.311Z,98132.97
2022-08-25T17:46:24.461Z,98133.78
2022-08-25T17:48:53.171Z,98141.66
2022-08-25T17:51:23.041Z,98142.47
2022-08-25T17:53:53.078Z,98136.13
2022-08-25T17:56:23.694Z,98135.00
2022-08-25T17:58:55.302Z,98151.00
2022-08-25T18:01:26.055Z,98140.81
2022-08-25T18:03:56.012Z,98139.22
2022-08-25T18:06:25.145Z,98145.63
2022-08-25T18:08:58.710Z,98148.84
2022-08-25T18:11:28.916Z,98146.50
2022-08-25T18:14:00.123Z,98144.25
2022-08-25T18:16:29.323Z,98146.13
2022-08-25T18:18:57.400Z,98145.41
2022-08-25T18:21:30.255Z,98146.94
2022-08-25T18:23:59.774Z,98149.00
2022-08-25T18:26:28.171Z,98152.06
2022-08-25T18:28:56.564Z,98165.50
2022-08-25T18:31:26.590Z,98160.22
2022-08-25T18:33:57.578Z,98157.94
2022-08-25T18:36:26.059Z,98161.97
2022-08-25T18:39:13.500Z,98160.00
2022-08-25T18:41:45.118Z,98159.47
2022-08-25T18:44:15.444Z,98162.47
2022-08-25T18:46:46.014Z,98155.56
2022-08-25T18:49:17.589Z,98164.28
2022-08-25T18:51:46.141Z,98167.44
2022-08-25T18:54:22.719Z,98166.34
2022-08-25T18:56:52.839Z,98174.28
2022-08-25T18:59:23.755Z,98160.22
2022-08-25T19:01:54.898Z,98159.03
2022-08-25T19:04:31.216Z,98156.81
2022-08-25T19:07:01.023Z,98158.69
2022-08-25T19:09:29.710Z,98162.78
2022-08-25T19:11:59.072Z,98162.88
2022-08-25T19:14:27.581Z,98171.78
2022-08-25T19:16:59.313Z,98161.13
2022-08-25T19:19:27.853Z,98166.47
2022-08-25T19:21:56.301Z,98163.59
2022-08-25T19:24:24.653Z,98163.69
2022-08-25T19:26:54.753Z,98170.88
2022-08-25T19:29:30.310Z,98171.97
2022-08-25T19:32:01.415Z,98177.03
2022-08-25T19:34:31.402Z,98171.03
2022-08-25T19:37:02.005Z,98171.78
2022-08-25T19:39:33.863Z,98164.69
2022-08-25T19:42:03.247Z,98165.47
2022-08-25T19:44:31.786Z,98170.25
2022-08-25T19:47:01.462Z,98163.47
2022-08-25T19:49:34.381Z,98160.66
2022-08-25T19:52:10.350Z,98164.69
2022-08-25T19:54:44.421Z,98169.94
2022-08-25T19:57:27.738Z,98164.44
2022-08-25T20:00:06.643Z,98162.88
2022-08-25T20:02:36.481Z,98162.03
2022-08-25T20:05:06.275Z,98167.41
2022-08-25T20:07:34.645Z,98157.19
2022-08-25T20:10:05.360Z,98162.16
2022-08-25T20:12:34.630Z,98160.31
2022-08-25T20:15:03.367Z,98153.53
2022-08-25T20:17:32.843Z,98152.50
2022-08-25T20:20:06.172Z,98156.38
2022-08-25T20:22:35.608Z,98153.22
2022-08-25T20:25:13.050Z,98156.59
2022-08-25T20:27:44.690Z,98159.97
2022-08-25T20:30:16.792Z,98148.88
2022-08-25T20:32:45.737Z,98162.25
2022-08-25T20:35:16.615Z,98156.78
2022-08-25T20:37:46.364Z,98155.31
2022-08-25T20:40:17.392Z,98151.84
2022-08-25T20:42:49.041Z,98157.03
2022-08-25T20:45:19.165Z,98148.75
2022-08-25T20:47:47.259Z,98146.66
2022-08-25T20:50:18.274Z,98143.88
2022-08-25T20:52:46.410Z,98149.31
2022-08-25T20:55:18.886Z,98147.13
2022-08-25T20:57:47.538Z,98149.25
2022-08-25T21:00:16.893Z,98137.13
2022-08-25T21:02:47.418Z,98139.19
2022-08-25T21:05:17.861Z,98151.13
2022-08-25T21:07:46.041Z,98140.94
2022-08-25T21:10:14.697Z,98139.72
2022-08-25T21:12:45.302Z,98138.34
2022-08-25T21:15:17.988Z,98139.13
2022-08-25T21:17:50.748Z,98146.97
2022-08-25T21:20:20.628Z,98141.56
2022-08-25T21:22:49.867Z,98144.22
2022-08-25T21:25:18.952Z,98143.00
2022-08-25T21:27:48.078Z,98145.47
2022-08-25T21:30:17.739Z,98146.28
2022-08-25T21:32:53.746Z,98147.94
2022-08-25T21:35:30.448Z,98144.00
2022-08-25T21:37:58.658Z,98143.56
2022-08-25T21:40:26.974Z,98143.56
2022-08-25T21:42:56.070Z,98141.09
2022-08-25T21:45:24.457Z,98137.53
2022-08-25T21:47:52.981Z,98134.31
2022-08-25T21:50:23.384Z,98129.84
2022-08-25T21:52:54.561Z,98133.16
2022-08-25T21:55:23.168Z,98129.63
2022-08-25T21:57:51.592Z,98128.00
2022-08-25T22:00:21.330Z,98140.97
2022-08-25T22:02:49.936Z,98140.59
2022-08-25T22:05:18.616Z,98128.16
2022-08-25T22:07:48.422Z,98131.66
2022-08-25T22:10:17.670Z,98135.00
2022-08-25T22:12:46.445Z,98130.19
2022-08-25T22:15:15.668Z,98135.78
2022-08-25T22:17:43.920Z,98133.00
2022-08-25T22:20:12.980Z,98143.06
2022-08-25T22:22:41.811Z,98133.06
2022-08-25T22:25:13.130Z,98132.63
2022-08-25T22:27:41.377Z,98121.06
2022-08-25T22:30:10.780Z,98120.59
2022-08-25T22:32:39.009Z,98126.25
2022-08-25T22:35:08.115Z,98132.72
2022-08-25T22:37:38.090Z,98128.28
2022-08-25T22:40:09.602Z,98128.66
2022-08-25T22:42:39.145Z,98127.88
2022-08-25T22:45:10.524Z,98131.88
2022-08-25T22:47:39.814Z,98126.28
2022-08-25T22:50:10.639Z,98124.69
2022-08-25T22:52:39.372Z,98114.63
2022-08-25T22:55:12.078Z,98115.81
2022-08-25T22:57:41.877Z,98113.03
2022-08-25T23:00:13.186Z,98116.25
2022-08-25T23:02:41.809Z,98108.56
2022-08-25T23:05:11.594Z,98113.41
2022-08-25T23:07:40.844Z,98110.97
2022-08-25T23:10:12.040Z,98113.00
2022-08-25T23:12:43.933Z,98115.00
2022-08-25T23:15:13.325Z,98104.53
2022-08-25T23:17:42.456Z,98100.09
2022-08-25T23:20:25.603Z,98100.50
2022-08-25T23:22:54.439Z,98094.41
2022-08-25T23:25:22.790Z,98099.53
2022-08-25T23:27:53.284Z,98096.81
2022-08-25T23:30:21.658Z,98107.09
2022-08-25T23:32:49.846Z,98101.47
2022-08-25T23:35:19.309Z,98097.03
2022-08-25T23:37:47.935Z,98098.16
2022-08-25T23:40:19.234Z,98099.44
2022-08-25T23:42:48.120Z,98107.31
2022-08-25T23:45:18.484Z,98093.91
2022-08-25T23:47:46.705Z,98101.38
2022-08-25T23:50:18.079Z,98092.53
2022-08-25T23:52:46.535Z,98092.19
2022-08-25T23:55:14.627Z,98095.34
2022-08-25T23:57:44.284Z,98086.94
